sensor_id;sensor_type;location;lat;lon;timestamp;pressure;altitude;pressure_sealevel;temperature;humidity
36354;BME280;22383;51.114;13.666;2022-10-31T00:01:48;68590.28;;;12.67;100.00
36354;BME280;22383;51.114;13.666;2022-10-31T00:04:16;68576.66;;;12.55;100.00
36354;BME280;22383;51.114;13.666;2022-10-31T00:06:43;68541.66;;;12.26;100.00
36354;BME280;22383;51.114;13.666;2022-10-31T00:09:10;68544.47;;;12.28;100.00
36354;BME280;22383;51.114;13.666;2022-10-31T00:11:38;68552.63;;;12.38;100.00
36354;BME280;22383;51.114;13.666;2022-10-31T00:14:06;68571.38;;;12.55;100.00
36354;BME280;22383;51.114;13.666;2022-10-31T00:16:33;68580.81;;;12.61;100.00
36354;BME280;22383;51.114;13.666;2022-10-31T00:19:02;68570.59;;;12.52;100.00
36354;BME280;22383;51.114;13.666;2022-10-31T00:21:31;68556.41;;;12.39;100.00
36354;BME280;22383;51.114;13.666;2022-10-31T00:23:59;68546.38;;;12.33;100.00
36354;BME280;22383;51.114;13.666;2022-10-31T00:26:27;68517.22;;;12.04;100.00
36354;BME280;22383;51.114;13.666;2022-10-31T00:28:55;68510.81;;;11.96;100.00
36354;BME280;22383;51.114;13.666;2022-10-31T00:31:22;68511.56;;;11.99;100.00
36354;BME280;22383;51.114;13.666;2022-10-31T00:33:50;68510.44;;;11.98;100.00
36354;BME280;22383;51.114;13.666;2022-10-31T00:36:19;68530.47;;;12.11;100.00
36354;BME280;22383;51.114;13.666;2022-10-31T00:38:47;68519.31;;;12.03;100.00
36354;BME280;22383;51.114;13.666;2022-10-31T00:41:16;68515.53;;;12.02;100.00
36354;BME280;22383;51.114;13.666;2022-10-31T00:43:43;68499.81;;;11.83;100.00
36354;BME280;22383;51.114;13.666;2022-10-31T00:46:12;68479.75;;;11.70;100.00
36354;BME280;22383;51.114;13.666;2022-10-31T00:48:41;68461.03;;;11.53;100.00
36354;BME280;22383;51.114;13.666;2022-10-31T00:51:08;68464.06;;;11.51;100.00
36354;BME280;22383;51.114;13.666;2022-10-31T00:53:35;68451.97;;;11.45;100.00
36354;BME280;22383;51.114;13.666;2022-10-31T00:56:03;68458.22;;;11.50;100.00
36354;BME280;22383;51.114;13.666;2022-10-31T00:58:31;68451.00;;;11.46;100.00
36354;BME280;22383;51.114;13.666;2022-10-31T01:00:58;68463.88;;;11.56;100.00
36354;BME280;22383;51.114;13.666;2022-10-31T01:03:28;68472.38;;;11.63;100.00
36354;BME280;22383;51.114;13.666;2022-10-31T01:08:33;68466.16;;;11.58;100.00
36354;BME280;22383;51.114;13.666;2022-10-31T01:11:06;68452.72;;;11.48;100.00
36354;BME280;22383;51.114;13.666;2022-10-31T01:13:34;68446.84;;;11.40;100.00
36354;BME280;22383;51.114;13.666;2022-10-31T01:16:04;68420.97;;;11.19;100.00
36354;BME280;22383;51.114;13.666;2022-10-31T01:18:33;68420.19;;;11.16;100.00
36354;BME280;22383;51.114;13.666;2022-10-31T01:21:09;68420.56;;;11.14;100.00
36354;BME280;22383;51.114;13.666;2022-10-31T01:23:36;68420.97;;;11.19;100.00
36354;BME280;22383;51.114;13.666;2022-10-31T01:26:16;68418.50;;;11.14;100.00
36354;BME280;22383;51.114;13.666;2022-10-31T01:29:05;68430.97;;;11.26;100.00
36354;BME280;22383;51.114;13.666;2022-10-31T01:31:37;68437.78;;;11.32;100.00
36354;BME280;22383;51.114;13.666;2022-10-31T01:34:05;68430.59;;;11.28;100.00
36354;BME280;22383;51.114;13.666;2022-10-31T01:36:34;68444.00;;;11.38;100.00
36354;BME280;22383;51.114;13.666;2022-10-31T01:39:10;68454.03;;;11.44;100.00
36354;BME280;22383;51.114;13.666;2022-10-31T01:41:41;68451.19;;;11.49;100.00
36354;BME280;22383;51.114;13.666;2022-10-31T01:46:54;68445.16;;;11.39;100.00
36354;BME280;22383;51.114;13.666;2022-10-31T01:52:05;68462.38;;;11.49;100.00
36354;BME280;22383;51.114;13.666;2022-10-31T01:54:42;68457.63;;;11.50;100.00
36354;BME280;22383;51.114;13.666;2022-10-31T01:57:14;68457.63;;;11.50;100.00
36354;BME280;22383;51.114;13.666;2022-10-31T01:59:46;68469.56;;;11.61;100.00
36354;BME280;22383;51.114;13.666;2022-10-31T02:02:22;68474.47;;;11.63;100.00
36354;BME280;22383;51.114;13.666;2022-10-31T02:04:52;68463.88;;;11.56;100.00
36354;BME280;22383;51.114;13.666;2022-10-31T02:07:26;68459.69;;;11.57;100.00
36354;BME280;22383;51.114;13.666;2022-10-31T02:09:58;68463.88;;;11.56;100.00
36354;BME280;22383;51.114;13.666;2022-10-31T02:12:29;68463.31;;;11.55;100.00
36354;BME280;22383;51.114;13.666;2022-10-31T02:15:00;68453.28;;;11.48;100.00
36354;BME280;22383;51.114;13.666;2022-10-31T02:17:29;68459.16;;;11.56;100.00
36354;BME280;22383;51.114;13.666;2022-10-31T02:20:15;68458.78;;;11.51;100.00
36354;BME280;22383;51.114;13.666;2022-10-31T02:26:04;68464.81;;;11.54;100.00
36354;BME280;22383;51.114;13.666;2022-10-31T02:28:16;68480.88;;;11.71;100.00
36354;BME280;22383;51.114;13.666;2022-10-31T02:34:16;68501.72;;;11.87;100.00
36354;BME280;22383;51.114;13.666;2022-10-31T02:36:52;68486.94;;;11.74;100.00
36354;BME280;22383;51.114;13.666;2022-10-31T02:39:31;68484.88;;;11.75;100.00
36354;BME280;22383;51.114;13.666;2022-10-31T02:42:14;68496.97;;;11.81;100.00
36354;BME280;22383;51.114;13.666;2022-10-31T02:44:51;68483.19;;;11.73;100.00
36354;BME280;22383;51.114;13.666;2022-10-31T02:47:27;68489.22;;;11.76;100.00
36354;BME280;22383;51.114;13.666;2022-10-31T02:50:22;68515.75;;;11.98;100.00
36354;BME280;22383;51.114;13.666;2022-10-31T02:52:52;68514.78;;;11.99;100.00
36354;BME280;22383;51.114;13.666;2022-10-31T02:58:01;68521.78;;;12.08;100.00
36354;BME280;22383;51.114;13.666;2022-10-31T03:00:37;68530.69;;;12.14;100.00
36354;BME280;22383;51.114;13.666;2022-10-31T03:06:09;68523.47;;;12.09;100.00
36354;BME280;22383;51.114;13.666;2022-10-31T03:08:58;68522.34;;;12.08;100.00
36354;BME280;22383;51.114;13.666;2022-10-31T03:11:32;68525.75;;;12.12;100.00
36354;BME280;22383;51.114;13.666;2022-10-31T03:14:10;68521.22;;;12.07;100.00
36354;BME280;22383;51.114;13.666;2022-10-31T03:16:51;68522.91;;;12.09;100.00
36354;BME280;22383;51.114;13.666;2022-10-31T03:19:34;68526.31;;;12.12;100.00
36354;BME280;22383;51.114;13.666;2022-10-31T03:22:20;68535.78;;;12.18;100.00
36354;BME280;22383;51.114;13.666;2022-10-31T03:24:49;68538.06;;;12.20;100.00
36354;BME280;22383;51.114;13.666;2022-10-31T03:27:29;68538.81;;;12.23;100.00
36354;BME280;22383;51.114;13.666;2022-10-31T03:30:01;68534.81;;;12.20;100.00
36354;BME280;22383;51.114;13.666;2022-10-31T03:32:44;68533.13;;;12.18;100.00
36354;BME280;22383;51.114;13.666;2022-10-31T03:35:15;68530.28;;;12.16;100.00
36354;BME280;22383;51.114;13.666;2022-10-31T03:37:46;68529.53;;;12.13;100.00
36354;BME280;22383;51.114;13.666;2022-10-31T03:40:16;68529.34;;;12.17;100.00
36354;BME280;22383;51.114;13.666;2022-10-31T03:42:52;68530.47;;;12.18;100.00
36354;BME280;22383;51.114;13.666;2022-10-31T03:45:26;68529.53;;;12.20;100.00
36354;BME280;22383;51.114;13.666;2022-10-31T03:47:57;68537.69;;;12.22;100.00
36354;BME280;22383;51.114;13.666;2022-10-31T03:50:33;68536.53;;;12.21;100.00
36354;BME280;22383;51.114;13.666;2022-10-31T03:53:10;68535.97;;;12.21;100.00
36354;BME280;22383;51.114;13.666;2022-10-31T03:55:52;68545.06;;;12.22;100.00
36354;BME280;22383;51.114;13.666;2022-10-31T03:58:28;68526.72;;;12.10;100.00
36354;BME280;22383;51.114;13.666;2022-10-31T04:01:00;68517.22;;;12.04;100.00
36354;BME280;22383;51.114;13.666;2022-10-31T04:03:35;68513.81;;;12.01;100.00
36354;BME280;22383;51.114;13.666;2022-10-31T04:06:08;68509.69;;;11.95;100.00
36354;BME280;22383;51.114;13.666;2022-10-31T04:08:41;68510.81;;;11.96;100.00
36354;BME280;22383;51.114;13.666;2022-10-31T04:11:17;68504.19;;;11.92;100.00
36354;BME280;22383;51.114;13.666;2022-10-31T04:13:55;68500.56;;;11.86;100.00
36354;BME280;22383;51.114;13.666;2022-10-31T04:16:24;68484.88;;;11.75;100.00
36354;BME280;22383;51.114;13.666;2022-10-31T04:18:52;68484.50;;;11.77;100.00
36354;BME280;22383;51.114;13.666;2022-10-31T04:21:26;68484.28;;;11.74;100.00
36354;BME280;22383;51.114;13.666;2022-10-31T04:23:55;68482.03;;;11.72;100.00
36354;BME280;22383;51.114;13.666;2022-10-31T04:26:25;68478.06;;;11.68;100.00
36354;BME280;22383;51.114;13.666;2022-10-31T04:28:52;68478.25;;;11.64;100.00
36354;BME280;22383;51.114;13.666;2022-10-31T04:31:20;68469.56;;;11.61;100.00
36354;BME280;22383;51.114;13.666;2022-10-31T04:33:49;68466.31;;;11.60;100.00
36354;BME280;22383;51.114;13.666;2022-10-31T04:36:17;68465.19;;;11.59;100.00
36354;BME280;22383;51.114;13.666;2022-10-31T04:38:44;68472.22;;;11.61;100.00
36354;BME280;22383;51.114;13.666;2022-10-31T04:41:24;68470.69;;;11.62;100.00
36354;BME280;22383;51.114;13.666;2022-10-31T04:43:57;68474.84;;;11.61;100.00
36354;BME280;22383;51.114;13.666;2022-10-31T04:46:26;68470.50;;;11.59;100.00
36354;BME280;22383;51.114;13.666;2022-10-31T04:48:56;68473.53;;;11.64;100.00
36354;BME280;22383;51.114;13.666;2022-10-31T04:51:24;68462.75;;;11.54;100.00
36354;BME280;22383;51.114;13.666;2022-10-31T04:53:51;68454.81;;;11.47;100.00
36354;BME280;22383;51.114;13.666;2022-10-31T04:56:48;68441.56;;;11.33;100.00
36354;BME280;22383;51.114;13.666;2022-10-31T04:59:20;68434.00;;;11.31;100.00
36354;BME280;22383;51.114;13.666;2022-10-31T05:01:51;68430.59;;;11.28;100.00
36354;BME280;22383;51.114;13.666;2022-10-31T05:04:27;68417.16;;;11.18;100.00
36354;BME280;22383;51.114;13.666;2022-10-31T05:06:54;68422.28;;;11.15;100.00
36354;BME280;22383;51.114;13.666;2022-10-31T05:09:21;68413.41;;;11.10;100.00
36354;BME280;22383;51.114;13.666;2022-10-31T05:11:50;68413.59;;;11.05;100.00
36354;BME280;22383;51.114;13.666;2022-10-31T05:14:37;68421.34;;;11.17;100.00
36354;BME280;22383;51.114;13.666;2022-10-31T05:17:23;68420.56;;;11.14;100.00
36354;BME280;22383;51.114;13.666;2022-10-31T05:20:18;68409.44;;;11.06;100.00
36354;BME280;22383;51.114;13.666;2022-10-31T05:23:12;68403.75;;;11.01;100.00
36354;BME280;22383;51.114;13.666;2022-10-31T05:25:41;68413.41;;;11.10;100.00
36354;BME280;22383;51.114;13.666;2022-10-31T05:28:08;68410.00;;;11.07;100.00
36354;BME280;22383;51.114;13.666;2022-10-31T05:30:37;68402.81;;;11.03;100.00
36354;BME280;22383;51.114;13.666;2022-10-31T05:33:09;68402.06;;;11.00;100.00
36354;BME280;22383;51.114;13.666;2022-10-31T05:35:54;68397.16;;;10.97;100.00
36354;BME280;22383;51.114;13.666;2022-10-31T05:39:00;68393.53;;;10.92;100.00
36354;BME280;22383;51.114;13.666;2022-10-31T05:41:35;68395.81;;;10.94;100.00
36354;BME280;22383;51.114;13.666;2022-10-31T05:44:12;68385.03;;;10.84;100.00
36354;BME280;22383;51.114;13.666;2022-10-31T05:46:54;68400.91;;;10.98;100.00
36354;BME280;22383;51.114;13.666;2022-10-31T05:49:41;68398.25;;;10.98;100.00
36354;BME280;22383;51.114;13.666;2022-10-31T05:52:27;68397.31;;;10.93;100.00
36354;BME280;22383;51.114;13.666;2022-10-31T05:55:06;68373.50;;;10.71;100.00
36354;BME280;22383;51.114;13.666;2022-10-31T05:57:35;68354.41;;;10.56;100.00
36354;BME280;22383;51.114;13.666;2022-10-31T06:00:04;68338.16;;;10.44;100.00
36354;BME280;22383;51.114;13.666;2022-10-31T06:02:34;68323.22;;;10.28;100.00
36354;BME280;22383;51.114;13.666;2022-10-31T06:05:19;68325.09;;;10.25;100.00
36354;BME280;22383;51.114;13.666;2022-10-31T06:07:47;68306.78;;;10.13;100.00
36354;BME280;22383;51.114;13.666;2022-10-31T06:10:14;68311.69;;;10.15;100.00
36354;BME280;22383;51.114;13.666;2022-10-31T06:12:48;68327.41;;;10.34;100.00
36354;BME280;22383;51.114;13.666;2022-10-31T06:15:23;68350.44;;;10.53;100.00
36354;BME280;22383;51.114;13.666;2022-10-31T06:18:03;68351.59;;;10.54;100.00
36354;BME280;22383;51.114;13.666;2022-10-31T06:20:35;68365.59;;;10.64;100.00
36354;BME280;22383;51.114;13.666;2022-10-31T06:23:04;68359.72;;;10.64;100.00
36354;BME280;22383;51.114;13.666;2022-10-31T06:25:33;68382.38;;;10.84;100.00
36354;BME280;22383;51.114;13.666;2022-10-31T06:28:00;68388.44;;;10.87;100.00
36354;BME280;22383;51.114;13.666;2022-10-31T06:30:41;68390.16;;;10.89;100.00
36354;BME280;22383;51.114;13.666;2022-10-31T06:33:08;68404.31;;;11.02;100.00
36354;BME280;22383;51.114;13.666;2022-10-31T06:35:45;68400.34;;;10.98;100.00
36354;BME280;22383;51.114;13.666;2022-10-31T06:38:14;68395.25;;;10.93;100.00
36354;BME280;22383;51.114;13.666;2022-10-31T06:40:42;68396.38;;;10.94;100.00
36354;BME280;22383;51.114;13.666;2022-10-31T06:43:26;68396.19;;;10.92;100.00
36354;BME280;22383;51.114;13.666;2022-10-31T06:46:13;68386.34;;;10.88;100.00
36354;BME280;22383;51.114;13.666;2022-10-31T06:48:48;68389.00;;;10.88;100.00
36354;BME280;22383;51.114;13.666;2022-10-31T06:51:20;68401.66;;;11.02;100.00
36354;BME280;22383;51.114;13.666;2022-10-31T06:53:50;68396.94;;;10.95;100.00
36354;BME280;22383;51.114;13.666;2022-10-31T06:56:18;68363.50;;;10.65;100.00
36354;BME280;22383;51.114;13.666;2022-10-31T06:58:50;68359.53;;;10.61;100.00
36354;BME280;22383;51.114;13.666;2022-10-31T07:01:28;68332.88;;;10.37;100.00
36354;BME280;22383;51.114;13.666;2022-10-31T07:03:56;68329.28;;;10.31;100.00
36354;BME280;22383;51.114;13.666;2022-10-31T07:06:24;68346.47;;;10.49;100.00
36354;BME280;22383;51.114;13.666;2022-10-31T07:08:51;68362.94;;;10.64;100.00
36354;BME280;22383;51.114;13.666;2022-10-31T07:11:19;68372.19;;;10.75;100.00
36354;BME280;22383;51.114;13.666;2022-10-31T07:13:46;68385.03;;;10.84;100.00
36354;BME280;22383;51.114;13.666;2022-10-31T07:16:15;68403.19;;;11.01;100.00
36354;BME280;22383;51.114;13.666;2022-10-31T07:18:42;68418.69;;;11.17;100.00
36354;BME280;22383;51.114;13.666;2022-10-31T07:21:11;68423.03;;;11.19;100.00
36354;BME280;22383;51.114;13.666;2022-10-31T07:23:39;68434.38;;;11.29;100.00
36354;BME280;22383;51.114;13.666;2022-10-31T07:26:25;68429.28;;;11.24;100.00
36354;BME280;22383;51.114;13.666;2022-10-31T07:28:54;68438.16;;;11.30;100.00
36354;BME280;22383;51.114;13.666;2022-10-31T07:31:24;68423.03;;;11.19;100.00
36354;BME280;22383;51.114;13.666;2022-10-31T07:33:55;68435.50;;;11.30;100.00
36354;BME280;22383;51.114;13.666;2022-10-31T07:36:28;68426.25;;;11.26;100.00
36354;BME280;22383;51.114;13.666;2022-10-31T07:39:00;68446.84;;;11.40;100.00
36354;BME280;22383;51.114;13.666;2022-10-31T07:41:31;68473.53;;;11.64;100.00
36354;BME280;22383;51.114;13.666;2022-10-31T07:43:59;68480.88;;;11.71;100.00
36354;BME280;22383;51.114;13.666;2022-10-31T07:46:29;68500.56;;;11.86;100.00
36354;BME280;22383;51.114;13.666;2022-10-31T07:49:14;68518.38;;;12.05;100.00
36354;BME280;22383;51.114;13.666;2022-10-31T07:51:59;68559.81;;;12.42;100.00
36354;BME280;22383;51.114;13.666;2022-10-31T07:54:45;68609.41;;;12.90;100.00
36354;BME280;22383;51.114;13.666;2022-10-31T07:57:21;68634.00;;;13.14;100.00
36354;BME280;22383;51.114;13.666;2022-10-31T07:59:51;68701.47;;;13.73;100.00
36354;BME280;22383;51.114;13.666;2022-10-31T08:02:19;68742.38;;;14.10;100.00
36354;BME280;22383;51.114;13.666;2022-10-31T08:04:46;68789.56;;;14.52;100.00
36354;BME280;22383;51.114;13.666;2022-10-31T08:07:28;68844.56;;;15.00;100.00
36354;BME280;22383;51.114;13.666;2022-10-31T08:10:04;68923.06;;;15.70;100.00
36354;BME280;22383;51.114;13.666;2022-10-31T08:12:31;68966.53;;;16.12;100.00
36354;BME280;22383;51.114;13.666;2022-10-31T08:14:59;69039.63;;;16.73;100.00
36354;BME280;22383;51.114;13.666;2022-10-31T08:17:26;69036.22;;;16.70;100.00
36354;BME280;22383;51.114;13.666;2022-10-31T08:19:59;69097.38;;;17.28;100.00
36354;BME280;22383;51.114;13.666;2022-10-31T08:22:36;69010.78;;;16.50;100.00
36354;BME280;22383;51.114;13.666;2022-10-31T08:25:10;69005.09;;;16.44;100.00
36354;BME280;22383;51.114;13.666;2022-10-31T08:27:38;69047.78;;;16.83;100.00
36354;BME280;22383;51.114;13.666;2022-10-31T08:30:07;69042.66;;;16.78;100.00
36354;BME280;22383;51.114;13.666;2022-10-31T08:32:37;69041.50;;;16.77;100.00
36354;BME280;22383;51.114;13.666;2022-10-31T08:35:23;69063.75;;;16.97;100.00
36354;BME280;22383;51.114;13.666;2022-10-31T08:38:12;68979.34;;;16.43;100.00
36354;BME280;22383;51.114;13.666;2022-10-31T08:40:41;68918.53;;;15.66;100.00
36354;BME280;22383;51.114;13.666;2022-10-31T08:43:13;68888.38;;;15.39;100.00
36354;BME280;22383;51.114;13.666;2022-10-31T08:45:42;68861.63;;;15.15;100.00
36354;BME280;22383;51.114;13.666;2022-10-31T08:48:17;68836.59;;;14.92;100.00
36354;BME280;22383;51.114;13.666;2022-10-31T08:50:45;68807.59;;;14.66;100.00
36354;BME280;22383;51.114;13.666;2022-10-31T08:53:13;68811.75;;;14.72;100.00
36354;BME280;22383;51.114;13.666;2022-10-31T08:55:45;68828.53;;;15.07;100.00
36354;BME280;22383;51.114;13.666;2022-10-31T08:58:23;68976.78;;;16.21;100.00
36354;BME280;22383;51.114;13.666;2022-10-31T09:00:59;69040.00;;;16.78;100.00
36354;BME280;22383;51.114;13.666;2022-10-31T09:03:29;69084.66;;;17.14;100.00
36354;BME280;22383;51.114;13.666;2022-10-31T09:06:01;69018.75;;;16.57;100.00
36354;BME280;22383;51.114;13.666;2022-10-31T09:08:31;68990.84;;;16.32;100.00
36354;BME280;22383;51.114;13.666;2022-10-31T09:11:00;68989.72;;;16.31;100.00
36354;BME280;22383;51.114;13.666;2022-10-31T09:13:52;69028.59;;;16.68;100.00
36354;BME280;22383;51.114;13.666;2022-10-31T09:16:37;69055.66;;;17.12;100.00
36354;BME280;22383;51.114;13.666;2022-10-31T09:19:08;69152.81;;;17.80;100.00
36354;BME280;22383;51.114;13.666;2022-10-31T09:21:37;69169.03;;;18.14;100.00
36354;BME280;22383;51.114;13.666;2022-10-31T09:24:05;69263.84;;;18.78;100.00
36354;BME280;22383;51.114;13.666;2022-10-31T09:26:33;69234.03;;;18.73;100.00
36354;BME280;22383;51.114;13.666;2022-10-31T09:29:08;69212.94;;;18.54;100.00
36354;BME280;22383;51.114;13.666;2022-10-31T09:31:39;69119.38;;;17.52;100.00
36354;BME280;22383;51.114;13.666;2022-10-31T09:34:30;69114.63;;;17.46;100.00
36354;BME280;22383;51.114;13.666;2022-10-31T09:37:12;69089.25;;;17.42;100.00
36354;BME280;22383;51.114;13.666;2022-10-31T09:39:39;69141.25;;;17.67;100.00
36354;BME280;22383;51.114;13.666;2022-10-31T09:45:13;69001.47;;;16.39;100.00
36354;BME280;22383;51.114;13.666;2022-10-31T09:50:43;68973.19;;;16.16;100.00
36354;BME280;22383;51.114;13.666;2022-10-31T09:56:31;68954.28;;;16.20;100.00
36354;BME280;22383;51.114;13.666;2022-10-31T09:59:01;68953.72;;;16.20;100.00
36354;BME280;22383;51.114;13.666;2022-10-31T10:01:41;69003.53;;;16.45;100.00
36354;BME280;22383;51.114;13.666;2022-10-31T10:30:24;69070.19;;;17.06;100.00
36354;BME280;22383;51.114;13.666;2022-10-31T10:33:02;69057.31;;;16.89;100.00
36354;BME280;22383;51.114;13.666;2022-10-31T10:35:39;69030.13;;;16.67;100.00
36354;BME280;22383;51.114;13.666;2022-10-31T10:40:37;69040.94;;;16.77;100.00
36354;BME280;22383;51.114;13.666;2022-10-31T10:46:19;69053.50;;;16.88;100.00
36354;BME280;22383;51.114;13.666;2022-10-31T10:49:18;69063.19;;;16.97;100.00
36354;BME280;22383;51.114;13.666;2022-10-31T10:55:22;69058.50;;;17.14;100.00
36354;BME280;22383;51.114;13.666;2022-10-31T10:58:09;69082.41;;;17.36;100.00
36354;BME280;22383;51.114;13.666;2022-10-31T11:00:42;69118.63;;;17.49;100.00
36354;BME280;22383;51.114;13.666;2022-10-31T11:03:10;69115.22;;;17.46;100.00
36354;BME280;22383;51.114;13.666;2022-10-31T11:08:29;69100.00;;;17.35;100.00
36354;BME280;22383;51.114;13.666;2022-10-31T11:11:01;69102.31;;;17.30;100.00
36354;BME280;22383;51.114;13.666;2022-10-31T11:13:29;69134.41;;;17.61;100.00
36354;BME280;22383;51.114;13.666;2022-10-31T11:16:07;69158.19;;;17.80;100.00
36354;BME280;22383;51.114;13.666;2022-10-31T11:18:39;69153.78;;;17.79;100.00
36354;BME280;22383;51.114;13.666;2022-10-31T11:21:26;69155.50;;;17.80;100.00
36354;BME280;22383;51.114;13.666;2022-10-31T11:24:26;69144.53;;;17.92;100.00
36354;BME280;22383;51.114;13.666;2022-10-31T11:26:50;69156.66;;;17.81;100.00
36354;BME280;22383;51.114;13.666;2022-10-31T11:29:23;69153.22;;;17.78;100.00
36354;BME280;22383;51.114;13.666;2022-10-31T11:31:57;69162.16;;;17.84;100.00
36354;BME280;22383;51.114;13.666;2022-10-31T11:34:42;69164.66;;;17.88;100.00
36354;BME280;22383;51.114;13.666;2022-10-31T11:37:15;69146.25;;;17.93;100.00
36354;BME280;22383;51.114;13.666;2022-10-31T11:39:46;69147.13;;;17.75;100.00
36354;BME280;22383;51.114;13.666;2022-10-31T11:42:22;69141.41;;;17.70;100.00
36354;BME280;22383;51.114;13.666;2022-10-31T11:44:51;69166.91;;;17.90;100.00
36354;BME280;22383;51.114;13.666;2022-10-31T11:47:28;69171.47;;;17.94;100.00
36354;BME280;22383;51.114;13.666;2022-10-31T11:49:57;69173.75;;;17.97;100.00
36354;BME280;22383;51.114;13.666;2022-10-31T11:52:31;69142.84;;;17.90;100.00
36354;BME280;22383;51.114;13.666;2022-10-31T11:57:55;69142.25;;;17.90;100.00
36354;BME280;22383;51.114;13.666;2022-10-31T12:00:38;69158.53;;;17.85;100.00
36354;BME280;22383;51.114;13.666;2022-10-31T12:08:28;69185.16;;;18.07;100.00
36354;BME280;22383;51.114;13.666;2022-10-31T12:14:26;69142.84;;;17.90;100.00
36354;BME280;22383;51.114;13.666;2022-10-31T12:17:14;69151.38;;;17.98;100.00
36354;BME280;22383;51.114;13.666;2022-10-31T12:22:47;69166.34;;;17.90;100.00
36354;BME280;22383;51.114;13.666;2022-10-31T12:25:31;69170.91;;;17.94;100.00
36354;BME280;22383;51.114;13.666;2022-10-31T12:42:34;69184.03;;;18.06;100.00
36354;BME280;22383;51.114;13.666;2022-10-31T12:45:37;69161.06;;;18.07;100.00
36354;BME280;22383;51.114;13.666;2022-10-31T12:48:18;69168.47;;;18.13;100.00
36354;BME280;22383;51.114;13.666;2022-10-31T12:50:52;69185.72;;;18.07;100.00
36354;BME280;22383;51.114;13.666;2022-10-31T12:59:35;69177.19;;;18.00;100.00
36354;BME280;22383;51.114;13.666;2022-10-31T13:05:03;69168.06;;;17.91;100.00
36354;BME280;22383;51.114;13.666;2022-10-31T13:07:42;69144.84;;;17.73;100.00
36354;BME280;22383;51.114;13.666;2022-10-31T13:10:19;69160.06;;;17.84;100.00
36354;BME280;22383;51.114;13.666;2022-10-31T13:12:49;69166.91;;;17.90;100.00
36354;BME280;22383;51.114;13.666;2022-10-31T13:15:21;69141.69;;;17.89;100.00
36354;BME280;22383;51.114;13.666;2022-10-31T13:17:56;69155.50;;;17.80;100.00
36354;BME280;22383;51.114;13.666;2022-10-31T13:20:42;69121.72;;;17.71;100.00
36354;BME280;22383;51.114;13.666;2022-10-31T13:23:24;69138.59;;;17.67;100.00
36354;BME280;22383;51.114;13.666;2022-10-31T13:26:35;69120.00;;;17.70;100.00
36354;BME280;22383;51.114;13.666;2022-10-31T13:29:23;69138.59;;;17.67;100.00
36354;BME280;22383;51.114;13.666;2022-10-31T13:32:04;69117.19;;;17.67;100.00
36354;BME280;22383;51.114;13.666;2022-10-31T13:34:50;69143.53;;;17.69;100.00
36354;BME280;22383;51.114;13.666;2022-10-31T13:42:57;69149.78;;;17.75;100.00
36354;BME280;22383;51.114;13.666;2022-10-31T13:45:26;69170.50;;;17.96;100.00
36354;BME280;22383;51.114;13.666;2022-10-31T13:50:30;69152.63;;;17.77;100.00
36354;BME280;22383;51.114;13.666;2022-10-31T13:53:20;69150.34;;;17.75;100.00
36354;BME280;22383;51.114;13.666;2022-10-31T14:01:28;69134.59;;;17.64;100.00
36354;BME280;22383;51.114;13.666;2022-10-31T14:04:01;69131.72;;;17.61;100.00
36354;BME280;22383;51.114;13.666;2022-10-31T14:12:21;69131.16;;;17.61;100.00
36354;BME280;22383;51.114;13.666;2022-10-31T14:14:52;69128.16;;;17.55;100.00
36354;BME280;22383;51.114;13.666;2022-10-31T14:17:24;69128.16;;;17.55;100.00
36354;BME280;22383;51.114;13.666;2022-10-31T14:22:47;69115.78;;;17.47;100.00
36354;BME280;22383;51.114;13.666;2022-10-31T14:25:34;69113.50;;;17.45;100.00
36354;BME280;22383;51.114;13.666;2022-10-31T14:28:48;69109.91;;;17.39;100.00
36354;BME280;22383;51.114;13.666;2022-10-31T14:30:55;69105.34;;;17.35;100.00
36354;BME280;22383;51.114;13.666;2022-10-31T14:33:26;69095.66;;;17.26;100.00
36354;BME280;22383;51.114;13.666;2022-10-31T14:36:09;69082.16;;;17.16;100.00
36354;BME280;22383;51.114;13.666;2022-10-31T14:38:58;69073.44;;;17.06;100.00
36354;BME280;22383;51.114;13.666;2022-10-31T14:52:13;69003.38;;;16.43;100.00
36354;BME280;22383;51.114;13.666;2022-10-31T14:54:47;68999.38;;;16.39;100.00
36354;BME280;22383;51.114;13.666;2022-10-31T14:57:24;68991.78;;;16.30;100.00
36354;BME280;22383;51.114;13.666;2022-10-31T15:00:17;68980.03;;;16.22;100.00
36354;BME280;22383;51.114;13.666;2022-10-31T15:03:06;68967.09;;;16.13;100.00
36354;BME280;22383;51.114;13.666;2022-10-31T15:05:46;68959.13;;;16.05;100.00
36354;BME280;22383;51.114;13.666;2022-10-31T15:08:34;68929.25;;;15.98;100.00
36354;BME280;22383;51.114;13.666;2022-10-31T15:16:26;68930.09;;;15.79;100.00
36354;BME280;22383;51.114;13.666;2022-10-31T15:19:06;68917.38;;;15.65;100.00
36354;BME280;22383;51.114;13.666;2022-10-31T15:21:43;68902.75;;;15.55;100.00
36354;BME280;22383;51.114;13.666;2022-10-31T15:24:16;68907.69;;;15.57;100.00
36354;BME280;22383;51.114;13.666;2022-10-31T15:26:47;68912.44;;;15.63;100.00
36354;BME280;22383;51.114;13.666;2022-10-31T15:29:19;68897.47;;;15.47;100.00
36354;BME280;22383;51.114;13.666;2022-10-31T15:34:24;68889.34;;;15.38;100.00
36354;BME280;22383;51.114;13.666;2022-10-31T15:36:53;68880.38;;;15.32;100.00
36354;BME280;22383;51.114;13.666;2022-10-31T15:39:20;68885.53;;;15.37;100.00
36354;BME280;22383;51.114;13.666;2022-10-31T15:41:52;68881.53;;;15.33;100.00
36354;BME280;22383;51.114;13.666;2022-10-31T15:44:23;68880.38;;;15.32;100.00